sensor_id;sensor_type;location;lat;lon;timestamp;P1;durP1;ratioP1;P2;durP2;ratioP2
27983;SDS011;15317;50.360;8.726;2023-05-07T00:04:06;3.50;;;3.20;;
27983;SDS011;15317;50.360;8.726;2023-05-07T00:09:10;3.80;;;3.50;;
27983;SDS011;15317;50.360;8.726;2023-05-07T00:14:13;3.97;;;3.60;;
27983;SDS011;15317;50.360;8.726;2023-05-07T00:19:18;4.37;;;3.60;;
27983;SDS011;15317;50.360;8.726;2023-05-07T00:24:21;4.00;;;3.70;;
27983;SDS011;15317;50.360;8.726;2023-05-07T00:29:24;4.10;;;3.70;;
27983;SDS011;15317;50.360;8.726;2023-05-07T00:34:29;4.57;;;3.70;;
27983;SDS011;15317;50.360;8.726;2023-05-07T00:39:32;3.73;;;3.40;;
27983;SDS011;15317;50.360;8.726;2023-05-07T00:44:35;3.60;;;3.30;;
27983;SDS011;15317;50.360;8.726;2023-05-07T00:49:41;4.03;;;3.63;;
27983;SDS011;15317;50.360;8.726;2023-05-07T00:54:45;4.30;;;3.90;;
27983;SDS011;15317;50.360;8.726;2023-05-07T00:59:48;4.17;;;3.87;;
27983;SDS011;15317;50.360;8.726;2023-05-07T01:04:53;3.63;;;3.33;;
27983;SDS011;15317;50.360;8.726;2023-05-07T01:09:57;3.93;;;3.63;;
27983;SDS011;15317;50.360;8.726;2023-05-07T01:15:01;4.73;;;3.53;;
27983;SDS011;15317;50.360;8.726;2023-05-07T01:20:07;3.57;;;3.30;;
27983;SDS011;15317;50.360;8.726;2023-05-07T01:25:14;3.80;;;3.47;;
27983;SDS011;15317;50.360;8.726;2023-05-07T01:30:18;4.03;;;3.73;;
27983;SDS011;15317;50.360;8.726;2023-05-07T01:35:37;4.80;;;3.87;;
27983;SDS011;15317;50.360;8.726;2023-05-07T01:40:44;3.83;;;3.53;;
27983;SDS011;15317;50.360;8.726;2023-05-07T01:45:48;3.97;;;3.67;;
27983;SDS011;15317;50.360;8.726;2023-05-07T01:50:52;3.77;;;3.43;;
27983;SDS011;15317;50.360;8.726;2023-05-07T01:55:57;4.00;;;3.70;;
27983;SDS011;15317;50.360;8.726;2023-05-07T02:01:00;4.20;;;3.80;;
27983;SDS011;15317;50.360;8.726;2023-05-07T02:06:04;4.13;;;3.83;;
27983;SDS011;15317;50.360;8.726;2023-05-07T02:11:09;3.77;;;3.43;;
27983;SDS011;15317;50.360;8.726;2023-05-07T02:16:12;4.00;;;3.70;;
27983;SDS011;15317;50.360;8.726;2023-05-07T02:21:16;4.10;;;3.80;;
27983;SDS011;15317;50.360;8.726;2023-05-07T02:26:21;3.70;;;3.40;;
27983;SDS011;15317;50.360;8.726;2023-05-07T02:31:24;4.60;;;4.20;;
27983;SDS011;15317;50.360;8.726;2023-05-07T02:36:27;5.10;;;4.70;;
27983;SDS011;15317;50.360;8.726;2023-05-07T02:41:32;5.03;;;4.63;;
27983;SDS011;15317;50.360;8.726;2023-05-07T02:46:35;5.57;;;5.07;;
27983;SDS011;15317;50.360;8.726;2023-05-07T02:51:38;5.77;;;5.03;;
27983;SDS011;15317;50.360;8.726;2023-05-07T02:56:43;5.50;;;5.10;;
27983;SDS011;15317;50.360;8.726;2023-05-07T03:01:46;6.13;;;5.60;;
27983;SDS011;15317;50.360;8.726;2023-05-07T03:06:50;5.67;;;5.17;;
27983;SDS011;15317;50.360;8.726;2023-05-07T03:11:55;5.97;;;5.43;;
27983;SDS011;15317;50.360;8.726;2023-05-07T03:16:59;6.10;;;5.60;;
27983;SDS011;15317;50.360;8.726;2023-05-07T03:22:02;6.37;;;5.77;;
27983;SDS011;15317;50.360;8.726;2023-05-07T03:27:07;6.00;;;5.50;;
27983;SDS011;15317;50.360;8.726;2023-05-07T03:32:10;5.93;;;5.33;;
27983;SDS011;15317;50.360;8.726;2023-05-07T03:37:13;5.53;;;5.13;;
27983;SDS011;15317;50.360;8.726;2023-05-07T03:42:18;5.97;;;5.47;;
27983;SDS011;15317;50.360;8.726;2023-05-07T03:47:21;6.17;;;5.60;;
27983;SDS011;15317;50.360;8.726;2023-05-07T03:52:24;5.83;;;5.30;;
27983;SDS011;15317;50.360;8.726;2023-05-07T03:57:29;5.80;;;5.30;;
27983;SDS011;15317;50.360;8.726;2023-05-07T04:02:32;6.27;;;5.67;;
27983;SDS011;15317;50.360;8.726;2023-05-07T04:07:36;6.60;;;5.93;;
27983;SDS011;15317;50.360;8.726;2023-05-07T04:12:40;6.20;;;5.60;;
27983;SDS011;15317;50.360;8.726;2023-05-07T04:17:44;6.57;;;5.87;;
27983;SDS011;15317;50.360;8.726;2023-05-07T04:22:47;6.13;;;5.63;;
27983;SDS011;15317;50.360;8.726;2023-05-07T04:27:52;5.87;;;5.37;;
27983;SDS011;15317;50.360;8.726;2023-05-07T04:32:58;6.10;;;5.60;;
27983;SDS011;15317;50.360;8.726;2023-05-07T04:38:01;6.10;;;5.50;;
27983;SDS011;15317;50.360;8.726;2023-05-07T04:43:06;6.10;;;5.50;;
27983;SDS011;15317;50.360;8.726;2023-05-07T04:48:10;6.33;;;5.73;;
27983;SDS011;15317;50.360;8.726;2023-05-07T04:53:16;6.17;;;5.40;;
27983;SDS011;15317;50.360;8.726;2023-05-07T04:58:21;6.10;;;5.50;;
27983;SDS011;15317;50.360;8.726;2023-05-07T05:03:24;6.00;;;5.30;;
27983;SDS011;15317;50.360;8.726;2023-05-07T05:08:27;6.33;;;5.70;;
27983;SDS011;15317;50.360;8.726;2023-05-07T05:13:31;5.93;;;5.43;;
27983;SDS011;15317;50.360;8.726;2023-05-07T05:18:35;5.77;;;5.37;;
27983;SDS011;15317;50.360;8.726;2023-05-07T05:23:38;5.57;;;5.17;;
27983;SDS011;15317;50.360;8.726;2023-05-07T05:28:43;5.60;;;5.07;;
27983;SDS011;15317;50.360;8.726;2023-05-07T05:33:46;5.93;;;5.40;;
27983;SDS011;15317;50.360;8.726;2023-05-07T05:38:49;5.83;;;5.33;;
27983;SDS011;15317;50.360;8.726;2023-05-07T05:43:54;6.10;;;5.57;;
27983;SDS011;15317;50.360;8.726;2023-05-07T05:48:57;5.90;;;5.40;;
27983;SDS011;15317;50.360;8.726;2023-05-07T05:54:00;5.83;;;5.43;;
27983;SDS011;15317;50.360;8.726;2023-05-07T05:59:05;5.53;;;5.13;;
27983;SDS011;15317;50.360;8.726;2023-05-07T06:04:08;5.53;;;5.13;;
27983;SDS011;15317;50.360;8.726;2023-05-07T06:09:11;5.20;;;4.70;;
27983;SDS011;15317;50.360;8.726;2023-05-07T06:14:16;5.00;;;4.60;;
27983;SDS011;15317;50.360;8.726;2023-05-07T06:19:20;4.90;;;4.50;;
27983;SDS011;15317;50.360;8.726;2023-05-07T06:24:25;4.80;;;4.30;;
27983;SDS011;15317;50.360;8.726;2023-05-07T06:29:30;4.80;;;4.50;;
27983;SDS011;15317;50.360;8.726;2023-05-07T06:34:34;6.23;;;4.47;;
27983;SDS011;15317;50.360;8.726;2023-05-07T06:39:37;4.60;;;4.20;;
27983;SDS011;15317;50.360;8.726;2023-05-07T06:44:41;5.23;;;4.83;;
27983;SDS011;15317;50.360;8.726;2023-05-07T06:49:45;4.33;;;4.13;;
27983;SDS011;15317;50.360;8.726;2023-05-07T06:54:48;6.13;;;4.40;;
27983;SDS011;15317;50.360;8.726;2023-05-07T06:59:52;5.20;;;4.43;;
27983;SDS011;15317;50.360;8.726;2023-05-07T07:04:55;5.03;;;4.63;;
27983;SDS011;15317;50.360;8.726;2023-05-07T07:09:58;5.63;;;5.23;;
27983;SDS011;15317;50.360;8.726;2023-05-07T07:15:03;4.90;;;4.50;;
27983;SDS011;15317;50.360;8.726;2023-05-07T07:20:07;5.10;;;4.73;;
27983;SDS011;15317;50.360;8.726;2023-05-07T07:25:13;4.97;;;4.57;;
27983;SDS011;15317;50.360;8.726;2023-05-07T07:30:17;5.60;;;5.20;;
27983;SDS011;15317;50.360;8.726;2023-05-07T07:35:21;5.63;;;5.25;;
27983;SDS011;15317;50.360;8.726;2023-05-07T07:40:26;6.67;;;6.10;;
27983;SDS011;15317;50.360;8.726;2023-05-07T07:45:31;6.70;;;6.10;;
27983;SDS011;15317;50.360;8.726;2023-05-07T07:50:34;6.10;;;5.70;;
27983;SDS011;15317;50.360;8.726;2023-05-07T07:55:46;5.82;;;5.43;;
27983;SDS011;15317;50.360;8.726;2023-05-07T08:00:51;5.97;;;5.60;;
27983;SDS011;15317;50.360;8.726;2023-05-07T08:05:54;6.00;;;5.60;;
27983;SDS011;15317;50.360;8.726;2023-05-07T08:10:58;5.72;;;5.25;;
27983;SDS011;15317;50.360;8.726;2023-05-07T08:16:03;5.97;;;5.50;;
27983;SDS011;15317;50.360;8.726;2023-05-07T08:21:07;6.25;;;5.85;;
27983;SDS011;15317;50.360;8.726;2023-05-07T08:26:11;5.93;;;5.53;;
27983;SDS011;15317;50.360;8.726;2023-05-07T08:31:15;6.40;;;5.80;;
27983;SDS011;15317;50.360;8.726;2023-05-07T08:36:19;7.30;;;6.60;;
27983;SDS011;15317;50.360;8.726;2023-05-07T08:41:22;6.00;;;5.60;;
27983;SDS011;15317;50.360;8.726;2023-05-07T08:46:27;6.28;;;5.88;;
27983;SDS011;15317;50.360;8.726;2023-05-07T08:51:32;6.88;;;6.30;;
27983;SDS011;15317;50.360;8.726;2023-05-07T08:56:35;6.30;;;5.90;;
27983;SDS011;15317;50.360;8.726;2023-05-07T09:01:40;5.90;;;5.40;;
27983;SDS011;15317;50.360;8.726;2023-05-07T09:06:44;5.80;;;5.40;;
27983;SDS011;15317;50.360;8.726;2023-05-07T09:11:54;5.82;;;5.43;;
27983;SDS011;15317;50.360;8.726;2023-05-07T09:17:01;5.65;;;5.25;;
27983;SDS011;15317;50.360;8.726;2023-05-07T09:22:05;5.70;;;5.25;;
27983;SDS011;15317;50.360;8.726;2023-05-07T09:27:09;5.38;;;5.07;;
27983;SDS011;15317;50.360;8.726;2023-05-07T09:32:16;4.95;;;4.65;;
27983;SDS011;15317;50.360;8.726;2023-05-07T09:37:19;4.82;;;4.53;;
27983;SDS011;15317;50.360;8.726;2023-05-07T09:42:23;4.90;;;4.60;;
27983;SDS011;15317;50.360;8.726;2023-05-07T09:47:28;6.38;;;5.88;;
27983;SDS011;15317;50.360;8.726;2023-05-07T09:52:35;5.28;;;4.97;;
27983;SDS011;15317;50.360;8.726;2023-05-07T09:57:39;5.68;;;5.28;;
27983;SDS011;15317;50.360;8.726;2023-05-07T10:02:44;5.60;;;5.15;;
27983;SDS011;15317;50.360;8.726;2023-05-07T10:07:51;4.88;;;4.55;;
27983;SDS011;15317;50.360;8.726;2023-05-07T10:12:55;5.28;;;4.78;;
27983;SDS011;15317;50.360;8.726;2023-05-07T10:23:24;5.55;;;5.15;;
27983;SDS011;15317;50.360;8.726;2023-05-07T10:28:31;5.30;;;4.90;;
27983;SDS011;15317;50.360;8.726;2023-05-07T10:33:39;5.20;;;4.82;;
27983;SDS011;15317;50.360;8.726;2023-05-07T10:38:44;5.35;;;4.85;;
27983;SDS011;15317;50.360;8.726;2023-05-07T10:43:48;5.05;;;4.75;;
27983;SDS011;15317;50.360;8.726;2023-05-07T10:49:11;4.88;;;4.50;;
27983;SDS011;15317;50.360;8.726;2023-05-07T10:54:19;5.00;;;4.65;;
27983;SDS011;15317;50.360;8.726;2023-05-07T10:59:34;5.30;;;4.88;;
27983;SDS011;15317;50.360;8.726;2023-05-07T11:04:46;4.60;;;4.20;;
27983;SDS011;15317;50.360;8.726;2023-05-07T11:10:21;4.93;;;4.63;;
27983;SDS011;15317;50.360;8.726;2023-05-07T11:15:35;5.13;;;4.70;;
27983;SDS011;15317;50.360;8.726;2023-05-07T11:20:52;5.30;;;4.88;;
27983;SDS011;15317;50.360;8.726;2023-05-07T11:25:58;5.35;;;5.00;;
27983;SDS011;15317;50.360;8.726;2023-05-07T11:31:02;5.45;;;5.05;;
27983;SDS011;15317;50.360;8.726;2023-05-07T11:36:08;6.00;;;5.50;;
27983;SDS011;15317;50.360;8.726;2023-05-07T11:41:11;5.82;;;5.10;;
27983;SDS011;15317;50.360;8.726;2023-05-07T11:46:15;5.38;;;4.97;;
27983;SDS011;15317;50.360;8.726;2023-05-07T11:51:21;6.00;;;5.60;;
27983;SDS011;15317;50.360;8.726;2023-05-07T11:56:26;5.45;;;5.05;;
27983;SDS011;15317;50.360;8.726;2023-05-07T12:01:30;6.05;;;4.60;;
27983;SDS011;15317;50.360;8.726;2023-05-07T12:06:37;5.70;;;4.22;;
27983;SDS011;15317;50.360;8.726;2023-05-07T12:11:41;5.22;;;4.93;;
27983;SDS011;15317;50.360;8.726;2023-05-07T12:16:48;5.28;;;4.88;;
27983;SDS011;15317;50.360;8.726;2023-05-07T12:21:57;4.88;;;4.55;;
27983;SDS011;15317;50.360;8.726;2023-05-07T12:27:04;4.93;;;4.63;;
27983;SDS011;15317;50.360;8.726;2023-05-07T12:32:07;4.90;;;4.53;;
27983;SDS011;15317;50.360;8.726;2023-05-07T12:37:22;4.82;;;4.35;;
27983;SDS011;15317;50.360;8.726;2023-05-07T12:42:26;4.50;;;4.20;;
27983;SDS011;15317;50.360;8.726;2023-05-07T12:47:35;3.83;;;3.58;;
27983;SDS011;15317;50.360;8.726;2023-05-07T12:52:40;3.80;;;3.40;;
27983;SDS011;15317;50.360;8.726;2023-05-07T12:57:47;3.20;;;3.00;;
27983;SDS011;15317;50.360;8.726;2023-05-07T13:02:53;3.10;;;2.90;;
27983;SDS011;15317;50.360;8.726;2023-05-07T13:07:58;3.30;;;3.00;;
27983;SDS011;15317;50.360;8.726;2023-05-07T13:13:01;3.83;;;2.90;;
27983;SDS011;15317;50.360;8.726;2023-05-07T13:18:05;3.40;;;3.20;;
27983;SDS011;15317;50.360;8.726;2023-05-07T13:23:10;3.22;;;3.03;;
27983;SDS011;15317;50.360;8.726;2023-05-07T13:28:13;3.63;;;3.33;;
27983;SDS011;15317;50.360;8.726;2023-05-07T13:33:16;3.45;;;3.13;;
27983;SDS011;15317;50.360;8.726;2023-05-07T13:38:21;3.10;;;2.80;;
27983;SDS011;15317;50.360;8.726;2023-05-07T13:43:25;3.20;;;3.00;;
27983;SDS011;15317;50.360;8.726;2023-05-07T13:48:29;3.10;;;2.90;;
27983;SDS011;15317;50.360;8.726;2023-05-07T13:53:34;3.40;;;3.20;;
27983;SDS011;15317;50.360;8.726;2023-05-07T13:58:38;3.40;;;3.20;;
27983;SDS011;15317;50.360;8.726;2023-05-07T14:03:57;4.43;;;2.97;;
27983;SDS011;15317;50.360;8.726;2023-05-07T14:09:02;3.38;;;3.17;;
27983;SDS011;15317;50.360;8.726;2023-05-07T14:14:05;3.60;;;3.17;;
27983;SDS011;15317;50.360;8.726;2023-05-07T14:19:09;3.58;;;3.30;;
27983;SDS011;15317;50.360;8.726;2023-05-07T14:24:13;3.00;;;2.80;;
27983;SDS011;15317;50.360;8.726;2023-05-07T14:29:35;3.35;;;3.00;;
27983;SDS011;15317;50.360;8.726;2023-05-07T14:34:38;3.17;;;2.97;;
27983;SDS011;15317;50.360;8.726;2023-05-07T14:39:43;2.97;;;2.78;;
27983;SDS011;15317;50.360;8.726;2023-05-07T14:44:50;3.20;;;3.00;;
27983;SDS011;15317;50.360;8.726;2023-05-07T14:49:54;3.10;;;2.90;;
27983;SDS011;15317;50.360;8.726;2023-05-07T14:55:00;2.75;;;2.55;;
27983;SDS011;15317;50.360;8.726;2023-05-07T15:00:03;3.17;;;2.47;;
27983;SDS011;15317;50.360;8.726;2023-05-07T15:05:08;2.60;;;2.45;;
27983;SDS011;15317;50.360;8.726;2023-05-07T15:10:13;2.83;;;2.63;;
27983;SDS011;15317;50.360;8.726;2023-05-07T15:15:17;2.60;;;2.50;;
27983;SDS011;15317;50.360;8.726;2023-05-07T15:20:21;2.80;;;2.60;;
27983;SDS011;15317;50.360;8.726;2023-05-07T15:25:26;2.80;;;2.60;;
27983;SDS011;15317;50.360;8.726;2023-05-07T15:30:29;2.75;;;2.55;;
27983;SDS011;15317;50.360;8.726;2023-05-07T15:35:32;2.65;;;2.42;;
27983;SDS011;15317;50.360;8.726;2023-05-07T15:40:37;2.85;;;2.40;;
27983;SDS011;15317;50.360;8.726;2023-05-07T15:45:43;3.63;;;3.10;;
27983;SDS011;15317;50.360;8.726;2023-05-07T15:50:47;3.15;;;2.95;;
27983;SDS011;15317;50.360;8.726;2023-05-07T15:55:51;3.33;;;3.03;;
27983;SDS011;15317;50.360;8.726;2023-05-07T16:00:54;3.10;;;2.90;;
27983;SDS011;15317;50.360;8.726;2023-05-07T16:05:58;3.33;;;3.13;;
27983;SDS011;15317;50.360;8.726;2023-05-07T16:11:03;3.17;;;2.97;;
27983;SDS011;15317;50.360;8.726;2023-05-07T16:16:06;3.55;;;3.20;;
27983;SDS011;15317;50.360;8.726;2023-05-07T16:21:10;3.20;;;2.90;;
27983;SDS011;15317;50.360;8.726;2023-05-07T16:26:15;3.15;;;2.95;;
27983;SDS011;15317;50.360;8.726;2023-05-07T16:31:19;3.58;;;2.90;;
27983;SDS011;15317;50.360;8.726;2023-05-07T16:36:25;3.30;;;3.00;;
27983;SDS011;15317;50.360;8.726;2023-05-07T16:41:30;3.75;;;3.47;;
27983;SDS011;15317;50.360;8.726;2023-05-07T16:46:33;4.50;;;4.20;;
27983;SDS011;15317;50.360;8.726;2023-05-07T16:51:36;4.40;;;4.00;;
27983;SDS011;15317;50.360;8.726;2023-05-07T16:56:45;5.10;;;4.72;;
27983;SDS011;15317;50.360;8.726;2023-05-07T17:01:48;5.63;;;5.22;;
27983;SDS011;15317;50.360;8.726;2023-05-07T17:06:53;5.03;;;4.70;;
27983;SDS011;15317;50.360;8.726;2023-05-07T17:11:57;5.00;;;4.60;;
27983;SDS011;15317;50.360;8.726;2023-05-07T17:17:00;5.45;;;5.05;;
27983;SDS011;15317;50.360;8.726;2023-05-07T17:22:03;6.10;;;5.63;;
27983;SDS011;15317;50.360;8.726;2023-05-07T17:27:08;5.93;;;5.53;;
27983;SDS011;15317;50.360;8.726;2023-05-07T17:32:11;6.50;;;5.93;;
27983;SDS011;15317;50.360;8.726;2023-05-07T17:37:15;6.32;;;5.93;;
27983;SDS011;15317;50.360;8.726;2023-05-07T17:42:19;7.38;;;6.78;;
27983;SDS011;15317;50.360;8.726;2023-05-07T17:47:22;8.40;;;7.33;;
27983;SDS011;15317;50.360;8.726;2023-05-07T17:52:25;6.82;;;6.22;;
27983;SDS011;15317;50.360;8.726;2023-05-07T17:57:30;9.93;;;9.13;;
27983;SDS011;15317;50.360;8.726;2023-05-07T18:02:35;7.80;;;7.10;;
27983;SDS011;15317;50.360;8.726;2023-05-07T18:07:39;7.77;;;7.17;;
27983;SDS011;15317;50.360;8.726;2023-05-07T18:12:43;7.40;;;6.90;;
27983;SDS011;15317;50.360;8.726;2023-05-07T18:17:46;6.70;;;6.30;;
27983;SDS011;15317;50.360;8.726;2023-05-07T18:22:50;7.80;;;7.10;;
27983;SDS011;15317;50.360;8.726;2023-05-07T18:27:54;8.07;;;7.37;;
27983;SDS011;15317;50.360;8.726;2023-05-07T18:32:57;7.80;;;7.10;;
27983;SDS011;15317;50.360;8.726;2023-05-07T18:38:00;5.60;;;5.10;;
27983;SDS011;15317;50.360;8.726;2023-05-07T18:43:06;4.83;;;4.43;;
27983;SDS011;15317;50.360;8.726;2023-05-07T18:48:09;4.50;;;4.10;;
27983;SDS011;15317;50.360;8.726;2023-05-07T18:53:12;4.07;;;3.77;;
27983;SDS011;15317;50.360;8.726;2023-05-07T18:58:17;4.73;;;4.30;;
27983;SDS011;15317;50.360;8.726;2023-05-07T19:03:21;5.80;;;5.40;;
27983;SDS011;15317;50.360;8.726;2023-05-07T19:08:24;7.00;;;6.40;;
27983;SDS011;15317;50.360;8.726;2023-05-07T19:13:29;8.80;;;8.10;;
27983;SDS011;15317;50.360;8.726;2023-05-07T19:18:32;9.40;;;8.70;;
27983;SDS011;15317;50.360;8.726;2023-05-07T19:23:35;9.37;;;8.67;;
27983;SDS011;15317;50.360;8.726;2023-05-07T19:28:43;10.20;;;9.37;;
27983;SDS011;15317;50.360;8.726;2023-05-07T19:33:57;10.50;;;9.70;;
27983;SDS011;15317;50.360;8.726;2023-05-07T19:39:00;10.40;;;9.50;;
27983;SDS011;15317;50.360;8.726;2023-05-07T19:44:05;10.00;;;9.30;;
27983;SDS011;15317;50.360;8.726;2023-05-07T19:49:08;9.17;;;8.37;;
27983;SDS011;15317;50.360;8.726;2023-05-07T19:54:13;10.00;;;9.20;;
27983;SDS011;15317;50.360;8.726;2023-05-07T19:59:18;9.73;;;9.03;;
27983;SDS011;15317;50.360;8.726;2023-05-07T20:04:21;10.63;;;9.83;;
27983;SDS011;15317;50.360;8.726;2023-05-07T20:09:29;10.40;;;9.60;;
27983;SDS011;15317;50.360;8.726;2023-05-07T20:14:34;10.60;;;9.80;;
27983;SDS011;15317;50.360;8.726;2023-05-07T20:19:37;9.77;;;9.07;;
27983;SDS011;15317;50.360;8.726;2023-05-07T20:24:40;9.77;;;8.97;;
27983;SDS011;15317;50.360;8.726;2023-05-07T20:29:45;10.03;;;9.23;;
27983;SDS011;15317;50.360;8.726;2023-05-07T20:34:48;9.20;;;8.57;;
27983;SDS011;15317;50.360;8.726;2023-05-07T20:39:51;9.73;;;9.03;;
27983;SDS011;15317;50.360;8.726;2023-05-07T20:44:55;10.60;;;9.90;;
27983;SDS011;15317;50.360;8.726;2023-05-07T20:49:59;10.10;;;9.20;;
27983;SDS011;15317;50.360;8.726;2023-05-07T20:55:02;9.80;;;9.10;;
27983;SDS011;15317;50.360;8.726;2023-05-07T21:00:08;9.83;;;9.17;;
27983;SDS011;15317;50.360;8.726;2023-05-07T21:05:12;9.67;;;8.87;;
27983;SDS011;15317;50.360;8.726;2023-05-07T21:10:15;9.80;;;9.10;;
27983;SDS011;15317;50.360;8.726;2023-05-07T21:15:19;9.53;;;8.83;;
27983;SDS011;15317;50.360;8.726;2023-05-07T21:20:22;10.53;;;9.73;;
27983;SDS011;15317;50.360;8.726;2023-05-07T21:25:25;9.90;;;9.20;;
27983;SDS011;15317;50.360;8.726;2023-05-07T21:30:30;10.63;;;9.43;;
27983;SDS011;15317;50.360;8.726;2023-05-07T21:35:33;10.80;;;10.00;;
27983;SDS011;15317;50.360;8.726;2023-05-07T21:40:36;10.87;;;10.13;;
27983;SDS011;15317;50.360;8.726;2023-05-07T21:45:41;10.73;;;9.93;;
27983;SDS011;15317;50.360;8.726;2023-05-07T21:50:44;10.23;;;9.53;;
27983;SDS011;15317;50.360;8.726;2023-05-07T21:55:47;11.00;;;10.20;;
27983;SDS011;15317;50.360;8.726;2023-05-07T22:00:52;10.57;;;9.83;;
27983;SDS011;15317;50.360;8.726;2023-05-07T22:05:55;10.60;;;9.90;;
27983;SDS011;15317;50.360;8.726;2023-05-07T22:10:58;11.20;;;10.30;;
27983;SDS011;15317;50.360;8.726;2023-05-07T22:16:03;10.50;;;9.70;;
27983;SDS011;15317;50.360;8.726;2023-05-07T22:21:07;11.47;;;10.57;;
27983;SDS011;15317;50.360;8.726;2023-05-07T22:26:10;11.23;;;10.43;;
27983;SDS011;15317;50.360;8.726;2023-05-07T22:31:15;10.30;;;9.60;;
27983;SDS011;15317;50.360;8.726;2023-05-07T22:36:18;10.37;;;9.57;;
27983;SDS011;15317;50.360;8.726;2023-05-07T22:41:21;10.80;;;10.00;;
27983;SDS011;15317;50.360;8.726;2023-05-07T22:46:25;10.93;;;10.13;;
27983;SDS011;15317;50.360;8.726;2023-05-07T22:51:29;10.37;;;9.63;;
27983;SDS011;15317;50.360;8.726;2023-05-07T22:56:32;11.30;;;10.30;;
27983;SDS011;15317;50.360;8.726;2023-05-07T23:01:37;11.50;;;10.60;;
27983;SDS011;15317;50.360;8.726;2023-05-07T23:06:40;11.33;;;10.53;;
27983;SDS011;15317;50.360;8.726;2023-05-07T23:11:43;11.60;;;10.40;;
27983;SDS011;15317;50.360;8.726;2023-05-07T23:16:49;11.40;;;10.60;;
27983;SDS011;15317;50.360;8.726;2023-05-07T23:21:52;11.07;;;10.37;;
27983;SDS011;15317;50.360;8.726;2023-05-07T23:26:55;11.27;;;10.37;;
27983;SDS011;15317;50.360;8.726;2023-05-07T23:31:59;12.20;;;11.30;;
27983;SDS011;15317;50.360;8.726;2023-05-07T23:37:03;11.93;;;11.03;;
27983;SDS011;15317;50.360;8.726;2023-05-07T23:42:06;11.50;;;10.70;;
27983;SDS011;15317;50.360;8.726;2023-05-07T23:47:12;11.70;;;10.70;;
27983;SDS011;15317;50.360;8.726;2023-05-07T23:52:15;11.27;;;10.40;;
27983;SDS011;15317;50.360;8.726;2023-05-07T23:57:18;12.27;;;11.37;;
